EGVN

RAF Brize Norton Airport

Brize Norton, United Kingdom
TAF EGVN 212221Z 2200/2224 26010KT 9999 SCT030 TEMPO 2200/2202 4000 RA BKN012 PROB40 TEMPO 2211/2216 4500 -SHRASN BKN012 PROB30 TEMPO 2216/2224 SCT015
Issued Valid From Valid To
Jan-21 @ 22:21 UTC
(3 hours ago)
Jan-22 @ 00:00 UTC
(57 minutes ago)
Jan-23 @ 00:00 UTC
(in 23 hours)
Jan-22 @ 00:00 to Jan-23 @ 00:00
TAF EGVN 212221Z 2200/2224 26010KT 9999 SCT030
Wind Visibility Clouds
260° at 10 knots 10,000+ meters
  • Scattered at 3,000' AGL
Temporary Jan-22 @ 00:00 to Jan-22 @ 02:00
TEMPO 2200/2202 4000 RA BKN012
Visibility Clouds Conditions
4,007 meters
  • Broken at 1,200' AGL
  • Rain
Temporary  (Probability 40%) Jan-22 @ 11:00 to Jan-22 @ 16:00
PROB40 TEMPO 2211/2216 4500 -SHRASN BKN012
Visibility Clouds Conditions
4,506 meters
  • Broken at 1,200' AGL
  • Light Rain
  • Light Snow
Temporary  (Probability 30%) Jan-22 @ 16:00 to Jan-23 @ 00:00
PROB30 TEMPO 2216/2224 SCT015
Clouds
  • Scattered at 1,500' AGL
TAF EGVN 212221Z 2200/2224 26010KT 9999 SCT030 TEMPO 2200/2202 4000 RA BKN012 PROB40 TEMPO 2211/2216 4500 -SHRASN BKN012 PROB30 TEMPO 2216/2224 SCT015
Issued Jan-21 @ 22:21 UTC
(3 hours ago)
Valid From Jan-22 @ 00:00 UTC
(57 minutes ago)
Valid To Jan-23 @ 00:00 UTC
(in 23 hours)
Jan-22 @ 00:00 - Jan-23 @ 00:00
Wind Visibility
260° at 10 knots 10,000+ meters
Clouds
  • Scattered at 3,000' AGL
Temporary Jan-22 @ 00:00 - Jan-22 @ 02:00
Clouds
  • Broken at 1,200' AGL
Conditions
  • Rain
Probability 40% Temporary Jan-22 @ 11:00 - Jan-22 @ 16:00
Clouds
  • Broken at 1,200' AGL
Conditions
  • Light Rain
  • Light Snow
Probability 30% Temporary Jan-22 @ 16:00 - Jan-23 @ 00:00
Clouds
  • Scattered at 1,500' AGL